首页
METAR-TAF:

METAR-TAF

机场 :

罗安达, 安哥拉

二月四日国际机场

纬度: 08-51S, 经度: 013-14E, 海拔: 74米

当前天气观测

该预报发布于33分钟前的01:00 UTC
风速3节,风向多变
温度 26°C
湿度 89%
气压 1010 hPa
能見度: 9000
散云层高于2200英尺

METAR: FNLU 190100Z VRB03KT 9000 SCT022 26/24 Q1010

时间: 02:33 (01:33 UTC)

预报

该预报发布于2小时和48分钟前的22:45 UTC
预报有效从19日的 00点(UTC)到 20日的 06点(UTC)
风速5节,风向南转南东
能见度10公里或以上
少量云层高于2000英尺
多云层高于2200英尺
少量云层高于2300英尺, 塔状积云.
几率 30% :
短暂存在
从 19日的 04点(UTC)到 19日的 08点(UTC)
风速8节,风向
能見度: 8000
少量云层高于2000英尺
多云层高于2200英尺
短暂存在
从 19日的 10点(UTC)到 19日的 16点(UTC)
风速10节,风向西
能見度: 6000
少量云层高于1800英尺
多云层高于2000英尺
小毛毛雨, 雨
成为
从 19日的 18点(UTC)到 19日的 20点(UTC)
少量云层高于2000英尺
散云层高于2300英尺
短暂存在
从 20日的 02点(UTC)到 20日的 06点(UTC)
能見度: 8000
少量云层高于1800英尺
多云层高于2000英尺

TAF: FNLU 182245Z 1900/2006 16005KT 9999 FEW020 BKN022 FEW023TCU PROB30 TEMPO 1904/1908 08008KT 8000 FEW020 BKN022 TEMPO 1910/1916 27010KT 6000 -DZRA FEW018 BKN020 BECMG 1918/1920 FEW020 SCT023 TEMPO 2002/2006 8000 FEW018 BKN020

超过4000个机场的气象观测和天气预报(METAR&TAF报告)。

可查询的气象台以黄色和红色小点在地图上表示。

将鼠标移到小点上方,可查看气象台名称。

然后点击查看天气观测和预报。

如需切换地图:点击带黑十字的绿色按钮放大地图;点击带横线的绿色按钮缩小地图;或者点击绿色箭头查看邻近地区的地图。


METAR-TAF: